Time;durP1;ratioP1;P1;durP2;ratioP2;P2;SDS_P1;SDS_P2;PMS_P1;PMS_P2;Temp;Humidity;BMP_temperature;BMP_pressure;BME280_temperature;BME280_humidity;BME280_pressure;Samples;Min_cycle;Max_cycle;Signal;HPM_P1;HPM_P2
2022/06/16 00:00:41;;;;;;;;;;;;;;;15.62;84.33;102030.50;5038421;28;19924;-30
2022/06/16 00:03:09;;;;;;;;;;;;;;;15.59;84.75;102038.72;5039169;28;20393;-30
2022/06/16 00:05:38;;;;;;;;;;;;;;;15.55;85.25;102043.25;5038511;28;19956;-29
2022/06/16 00:08:07;;;;;;;;;;;;;;;15.51;85.67;102051.47;5039600;28;19936;-29
2022/06/16 00:10:37;;;;;;;;;;;;;;;15.47;85.89;102042.78;5041676;28;19929;-33
2022/06/16 00:13:05;;;;;;;;;;;;;;;15.45;86.44;102039.44;5042399;28;19925;-32
2022/06/16 00:15:33;;;;;;;;;;;;;;;15.44;86.68;102039.72;5039913;28;19931;-34
2022/06/16 00:18:00;;;;;;;;;;;;;;;15.41;87.22;102051.59;5041975;28;19948;-35
2022/06/16 00:20:29;;;;;;;;;;;;;;;15.38;87.36;102053.06;5038290;28;20392;-30
2022/06/16 00:22:56;;;;;;;;;;;;;;;15.36;87.78;102058.16;5041883;28;19925;-31
2022/06/16 00:25:24;;;;;;;;;;;;;;;15.34;87.83;102056.78;5039193;28;19967;-33
2022/06/16 00:27:53;;;;;;;;;;;;;;;15.30;87.94;102061.31;5041238;28;19925;-31
2022/06/16 00:30:21;;;;;;;;;;;;;;;15.26;88.21;102063.88;5039100;28;19961;-35
2022/06/16 00:32:48;;;;;;;;;;;;;;;15.22;88.21;102071.25;5041690;28;20345;-31
2022/06/16 00:35:16;;;;;;;;;;;;;;;15.18;88.38;102064.56;5022073;28;19926;-30
2022/06/16 00:37:44;;;;;;;;;;;;;;;15.16;88.32;102067.69;5041930;28;20375;-29
2022/06/16 00:40:12;;;;;;;;;;;;;;;15.13;88.59;102068.28;5044157;28;20024;-29
2022/06/16 00:42:40;;;;;;;;;;;;;;;15.11;88.81;102066.91;5027853;28;20011;-31
2022/06/16 00:45:22;;;;;;;;;;;;;;;15.07;89.10;102068.63;5038732;28;19925;-29
2022/06/16 00:47:53;;;;;;;;;;;;;;;15.03;89.56;102073.19;5027958;28;20050;-32
2022/06/16 00:50:21;;;;;;;;;;;;;;;15.00;89.64;102068.16;5037649;28;20031;-29
2022/06/16 00:52:49;;;;;;;;;;;;;;;14.95;89.80;102071.88;5037481;28;19964;-28
2022/06/16 00:55:17;;;;;;;;;;;;;;;14.90;89.88;102083.19;5039612;28;19929;-29
2022/06/16 00:57:47;;;;;;;;;;;;;;;14.87;90.08;102086.59;5042715;28;19929;-32
2022/06/16 01:00:17;;;;;;;;;;;;;;;14.82;90.22;102090.28;5045543;28;19925;-30
2022/06/16 01:02:45;;;;;;;;;;;;;;;14.76;90.14;102083.06;5042108;28;19924;-28
2022/06/16 01:05:13;;;;;;;;;;;;;;;14.71;90.12;102087.88;5041687;28;19929;-32
2022/06/16 01:07:42;;;;;;;;;;;;;;;14.65;90.23;102086.25;5042749;28;19947;-29
2022/06/16 01:10:10;;;;;;;;;;;;;;;14.61;90.42;102082.38;5041993;28;20035;-32
2022/06/16 01:15:55;;;;;;;;;;;;;;;14.47;91.20;102090.66;5047648;28;19935;-29
2022/06/16 01:18:26;;;;;;;;;;;;;;;14.41;91.16;102080.59;5042763;28;19929;-28
2022/06/16 01:20:59;;;;;;;;;;;;;;;14.37;91.51;102082.31;5047806;28;20386;-28
2022/06/16 01:23:39;;;;;;;;;;;;;;;14.33;91.38;102086.84;5040296;28;19939;-31
2022/06/16 01:26:18;;;;;;;;;;;;;;;14.27;91.62;102082.38;5047392;28;19925;-31
2022/06/16 01:28:57;;;;;;;;;;;;;;;14.20;91.63;102081.88;5041572;28;19929;-28
2022/06/16 01:31:27;;;;;;;;;;;;;;;14.16;91.93;102084.47;5039836;28;20346;-29
2022/06/16 01:34:01;;;;;;;;;;;;;;;14.12;92.22;102087.00;5042082;28;19929;-28
2022/06/16 01:36:34;;;;;;;;;;;;;;;14.09;92.77;102095.16;5040165;28;20315;-29
2022/06/16 01:39:04;;;;;;;;;;;;;;;14.05;93.30;102091.25;5041505;28;19931;-32
2022/06/16 01:41:35;;;;;;;;;;;;;;;14.03;93.74;102085.94;5042105;28;20024;-28
2022/06/16 01:44:08;;;;;;;;;;;;;;;13.99;94.03;102090.47;5045578;28;19965;-29
2022/06/16 01:46:39;;;;;;;;;;;;;;;13.96;94.13;102087.41;5046215;28;19925;-28
2022/06/16 01:49:16;;;;;;;;;;;;;;;13.93;94.21;102093.63;5046033;28;19932;-30
2022/06/16 01:51:46;;;;;;;;;;;;;;;13.91;94.44;102096.72;5045105;28;20373;-34
2022/06/16 01:54:17;;;;;;;;;;;;;;;13.87;94.50;102089.16;5045789;28;19975;-34
2022/06/16 01:56:47;;;;;;;;;;;;;;;13.86;95.29;102087.47;5045695;28;19925;-32
2022/06/16 01:59:19;;;;;;;;;;;;;;;13.84;95.41;102084.13;5044892;28;19948;-31
2022/06/16 02:01:50;;;;;;;;;;;;;;;13.82;95.51;102090.03;5045116;28;19924;-33
2022/06/16 02:04:21;;;;;;;;;;;;;;;13.82;95.92;102092.84;5045676;28;20439;-33
2022/06/16 02:06:52;;;;;;;;;;;;;;;13.83;95.97;102100.13;5038734;28;19928;-32
2022/06/16 02:09:25;;;;;;;;;;;;;;;13.82;95.86;102109.66;5045303;28;19983;-35
2022/06/16 02:11:56;;;;;;;;;;;;;;;13.81;96.11;102124.81;5042844;28;19931;-29
2022/06/16 02:14:33;;;;;;;;;;;;;;;13.80;96.12;102117.53;5044528;28;19960;-29
2022/06/16 02:17:11;;;;;;;;;;;;;;;13.78;96.09;102126.28;5043268;28;19971;-37
2022/06/16 02:19:40;;;;;;;;;;;;;;;13.79;96.29;102133.53;5044480;28;20258;-30
2022/06/16 02:22:10;;;;;;;;;;;;;;;13.77;96.20;102129.38;5042737;28;20357;-33
2022/06/16 02:24:38;;;;;;;;;;;;;;;13.76;96.22;102131.34;5046622;28;19929;-33
2022/06/16 02:27:06;;;;;;;;;;;;;;;13.75;96.41;102129.66;5042906;28;19932;-29
2022/06/16 02:29:37;;;;;;;;;;;;;;;13.74;96.55;102125.16;5046490;28;19964;-38
2022/06/16 02:32:25;;;;;;;;;;;;;;;13.74;96.65;102129.94;5042266;28;19971;-32
2022/06/16 02:34:57;;;;;;;;;;;;;;;13.74;96.96;102135.53;5043829;28;20294;-35
2022/06/16 02:37:31;;;;;;;;;;;;;;;13.73;97.36;102136.69;5044170;28;19925;-31
2022/06/16 02:40:16;;;;;;;;;;;;;;;13.73;97.41;102131.91;5039894;28;19983;-28
2022/06/16 02:42:49;;;;;;;;;;;;;;;13.73;97.48;102129.09;5043355;28;19932;-32
2022/06/16 02:45:23;;;;;;;;;;;;;;;13.73;97.67;102137.50;5041312;28;20313;-34
2022/06/16 02:47:59;;;;;;;;;;;;;;;13.73;98.00;102140.31;5043082;28;19929;-34
2022/06/16 02:50:35;;;;;;;;;;;;;;;13.72;98.37;102149.03;5040920;28;19925;-33
2022/06/16 02:53:08;;;;;;;;;;;;;;;13.71;98.53;102148.19;5032844;28;19932;-31
2022/06/16 02:55:39;;;;;;;;;;;;;;;13.70;98.84;102152.13;5039038;28;20019;-36
2022/06/16 02:58:10;;;;;;;;;;;;;;;13.68;98.98;102145.09;5042376;28;19929;-31
2022/06/16 03:00:46;;;;;;;;;;;;;;;13.67;98.98;102140.63;5039364;28;20338;-28
2022/06/16 03:03:17;;;;;;;;;;;;;;;13.68;99.68;102129.13;5041315;28;19935;-32
2022/06/16 03:05:45;;;;;;;;;;;;;;;13.67;100.00;102129.41;5039302;28;19936;-41
2022/06/16 03:08:13;;;;;;;;;;;;;;;13.66;100.00;102127.72;5043356;28;19929;-35
2022/06/16 03:10:54;;;;;;;;;;;;;;;13.63;100.00;102126.34;5055196;28;19948;-34
2022/06/16 03:13:23;;;;;;;;;;;;;;;13.63;100.00;102137.56;5041914;28;19975;-37
2022/06/16 03:15:53;;;;;;;;;;;;;;;13.61;100.00;102142.59;5039304;28;20043;-35
2022/06/16 03:18:21;;;;;;;;;;;;;;;13.60;100.00;102140.94;5042128;28;19979;-30
2022/06/16 03:20:50;;;;;;;;;;;;;;;13.58;100.00;102142.38;5038963;28;19924;-37
2022/06/16 03:23:18;;;;;;;;;;;;;;;13.56;100.00;102141.81;5040508;28;19924;-34
2022/06/16 03:25:48;;;;;;;;;;;;;;;13.54;100.00;102144.06;5040209;28;20011;-32
2022/06/16 03:28:17;;;;;;;;;;;;;;;13.53;100.00;102145.19;5040618;28;19928;-34
2022/06/16 03:30:44;;;;;;;;;;;;;;;13.53;100.00;102150.81;5037977;28;20236;-32
2022/06/16 03:33:16;;;;;;;;;;;;;;;13.51;100.00;102153.91;5039604;28;19939;-37
2022/06/16 03:35:47;;;;;;;;;;;;;;;13.50;100.00;102156.97;5048800;28;19940;-37
2022/06/16 03:38:17;;;;;;;;;;;;;;;13.47;100.00;102174.38;5039924;28;19931;-30
2022/06/16 03:40:45;;;;;;;;;;;;;;;13.43;100.00;102174.09;5037726;28;19955;-34
2022/06/16 03:43:14;;;;;;;;;;;;;;;13.42;100.00;102194.84;5042751;28;19972;-35
2022/06/16 03:45:42;;;;;;;;;;;;;;;13.38;100.00;102188.16;5043034;28;20282;-33
2022/06/16 03:48:10;;;;;;;;;;;;;;;13.35;100.00;102194.34;5043674;28;20301;-32
2022/06/16 03:50:42;;;;;;;;;;;;;;;13.33;100.00;102185.38;5043617;28;19925;-36
2022/06/16 03:53:13;;;;;;;;;;;;;;;13.31;100.00;102194.06;5043586;28;20393;-31
2022/06/16 03:55:46;;;;;;;;;;;;;;;13.30;100.00;102192.38;5060372;28;19935;-38
2022/06/16 03:58:16;;;;;;;;;;;;;;;13.28;100.00;102186.22;5042737;28;20227;-33
2022/06/16 04:00:43;;;;;;;;;;;;;;;13.27;100.00;102176.13;5042618;28;19932;-40
2022/06/16 04:05:59;;;;;;;;;;;;;;;13.26;100.00;102170.81;5039916;28;19979;-30
2022/06/16 04:08:27;;;;;;;;;;;;;;;13.24;100.00;102185.09;5040211;28;19967;-39
2022/06/16 04:10:56;;;;;;;;;;;;;;;13.22;100.00;102184.56;5057893;28;19925;-34
2022/06/16 04:13:24;;;;;;;;;;;;;;;13.23;100.00;102185.38;5037191;28;19933;-35
2022/06/16 04:15:56;;;;;;;;;;;;;;;13.23;100.00;102191.84;5040459;28;20028;-38
2022/06/16 04:18:24;;;;;;;;;;;;;;;13.22;100.00;102200.53;5039043;28;19925;-36
2022/06/16 04:20:52;;;;;;;;;;;;;;;13.19;100.00;102201.94;5040168;28;19948;-35
2022/06/16 04:23:45;;;;;;;;;;;;;;;13.20;100.00;102206.41;5039227;28;19935;-32
2022/06/16 04:26:15;;;;;;;;;;;;;;;13.20;100.00;102208.38;5041157;28;19982;-31
2022/06/16 04:28:47;;;;;;;;;;;;;;;13.21;100.00;102222.13;5037663;28;19933;-29
2022/06/16 04:31:15;;;;;;;;;;;;;;;13.24;100.00;102238.38;5040707;28;20406;-32
2022/06/16 04:33:43;;;;;;;;;;;;;;;13.26;100.00;102233.31;5040712;28;20393;-37
2022/06/16 04:36:12;;;;;;;;;;;;;;;13.28;100.00;102239.50;5046473;28;19943;-33
2022/06/16 04:38:49;;;;;;;;;;;;;;;13.32;100.00;102240.59;5037633;28;19932;-32
2022/06/16 04:41:22;;;;;;;;;;;;;;;13.36;100.00;102247.34;5039606;28;20015;-36
2022/06/16 04:43:50;;;;;;;;;;;;;;;13.38;100.00;102236.66;5037749;28;19933;-29
2022/06/16 04:46:19;;;;;;;;;;;;;;;13.41;100.00;102244.50;5041497;28;19999;-31
2022/06/16 04:48:49;;;;;;;;;;;;;;;13.45;100.00;102242.81;5041847;28;19978;-36
2022/06/16 04:51:19;;;;;;;;;;;;;;;13.50;100.00;102241.13;5039899;28;20024;-31
2022/06/16 04:53:51;;;;;;;;;;;;;;;13.53;100.00;102241.38;5043753;28;19925;-33
2022/06/16 04:56:39;;;;;;;;;;;;;;;13.58;100.00;102244.19;5040836;28;19926;-39
2022/06/16 04:59:22;;;;;;;;;;;;;;;13.62;100.00;102245.25;5042962;28;19928;-28
2022/06/16 05:02:15;;;;;;;;;;;;;;;13.67;100.00;102250.03;5038995;28;19925;-29
2022/06/16 05:05:02;;;;;;;;;;;;;;;13.73;100.00;102262.91;5042948;28;19924;-38
2022/06/16 05:07:44;;;;;;;;;;;;;;;13.77;100.00;102259.25;5040975;28;20427;-32
2022/06/16 05:10:40;;;;;;;;;;;;;;;13.84;100.00;102266.50;5042556;28;19929;-34
2022/06/16 05:13:34;;;;;;;;;;;;;;;13.91;100.00;102265.09;5044399;28;19940;-40
2022/06/16 05:16:17;;;;;;;;;;;;;;;13.98;100.00;102268.44;5037435;28;19925;-32
2022/06/16 05:19:03;;;;;;;;;;;;;;;14.06;100.00;102276.22;5038151;28;19966;-36
2022/06/16 05:21:42;;;;;;;;;;;;;;;14.15;100.00;102273.69;5037788;28;19925;-32
2022/06/16 05:24:28;;;;;;;;;;;;;;;14.25;100.00;102275.56;5039952;28;19929;-32
2022/06/16 05:27:17;;;;;;;;;;;;;;;14.35;100.00;102267.09;5038789;28;20440;-27
2022/06/16 05:29:59;;;;;;;;;;;;;;;14.42;100.00;102274.09;5036251;28;20011;-31
2022/06/16 05:32:47;;;;;;;;;;;;;;;14.51;100.00;102276.28;5040817;28;19933;-34
2022/06/16 05:35:42;;;;;;;;;;;;;;;14.59;100.00;102276.50;5037111;28;20385;-34
2022/06/16 05:38:33;;;;;;;;;;;;;;;14.67;100.00;102273.06;5036202;28;19925;-28
2022/06/16 05:41:19;;;;;;;;;;;;;;;14.74;100.00;102270.78;5042089;28;20469;-34
2022/06/16 05:44:07;;;;;;;;;;;;;;;14.85;100.00;102279.13;5041146;28;20643;-40
2022/06/16 05:46:44;;;;;;;;;;;;;;;14.93;99.99;102278.50;5043048;28;19940;-28
2022/06/16 05:49:13;;;;;;;;;;;;;;;15.01;99.50;102283.47;5041903;28;19951;-34
2022/06/16 05:51:42;;;;;;;;;;;;;;;15.07;99.26;102288.78;5043891;28;20289;-27
2022/06/16 05:54:12;;;;;;;;;;;;;;;15.14;98.95;102282.81;5043102;28;19932;-30
2022/06/16 05:56:43;;;;;;;;;;;;;;;15.22;98.90;102281.31;5044492;28;19925;-28
2022/06/16 05:59:12;;;;;;;;;;;;;;;15.29;98.53;102291.09;5041308;28;19929;-34
2022/06/16 06:01:45;;;;;;;;;;;;;;;15.38;98.19;102294.13;5043982;28;20352;-33
2022/06/16 06:04:13;;;;;;;;;;;;;;;15.44;97.85;102296.56;5041329;28;20371;-33
2022/06/16 06:06:44;;;;;;;;;;;;;;;15.53;97.59;102291.13;5044233;28;19925;-30
2022/06/16 06:18:00;;;;;;;;;;;;;;;15.94;94.32;102280.28;4964046;28;19997;-30
2022/06/16 06:20:27;;;;;;;;;;;;;;;16.04;93.59;102276.47;4970274;28;20394;-31
2022/06/16 06:22:55;;;;;;;;;;;;;;;16.14;92.75;102285.66;5008674;28;20312;-34
2022/06/16 06:25:24;;;;;;;;;;;;;;;16.25;92.16;102283.50;5041173;28;19967;-33
2022/06/16 06:27:52;;;;;;;;;;;;;;;16.41;91.14;102284.13;5043839;28;19931;-37
2022/06/16 06:30:22;;;;;;;;;;;;;;;16.56;89.68;102277.44;5042627;28;19939;-31
2022/06/16 06:32:52;;;;;;;;;;;;;;;16.72;88.27;102282.56;5038161;28;19929;-30
2022/06/16 06:35:20;;;;;;;;;;;;;;;16.96;86.86;102276.81;5040252;28;19925;-35
2022/06/16 06:37:49;;;;;;;;;;;;;;;17.27;85.71;102282.75;5045286;28;19928;-31
2022/06/16 06:40:20;;;;;;;;;;;;;;;17.62;85.25;102278.41;5040419;28;19982;-33
2022/06/16 06:42:48;;;;;;;;;;;;;;;18.09;82.17;102276.34;5045272;28;19935;-29
2022/06/16 06:45:16;;;;;;;;;;;;;;;18.50;82.17;102270.63;5042363;28;19935;-28
2022/06/16 06:47:45;;;;;;;;;;;;;;;18.99;75.61;102274.53;5043878;28;19929;-30
2022/06/16 06:50:18;;;;;;;;;;;;;;;19.42;72.45;102269.97;5042224;28;19935;-37
2022/06/16 06:52:46;;;;;;;;;;;;;;;19.80;70.04;102269.50;5045242;28;19935;-31
2022/06/16 06:55:13;;;;;;;;;;;;;;;20.28;67.99;102273.16;5042022;28;20033;-29
2022/06/16 06:57:41;;;;;;;;;;;;;;;20.85;61.05;102270.22;5043596;28;20413;-37
2022/06/16 07:00:10;;;;;;;;;;;;;;;21.29;61.87;102271.00;5044327;28;19929;-29
2022/06/16 07:02:37;;;;;;;;;;;;;;;21.77;60.09;102265.00;5043404;28;19932;-36
2022/06/16 07:05:07;;;;;;;;;;;;;;;22.24;55.76;102265.75;5043026;28;19925;-33
2022/06/16 07:07:35;;;;;;;;;;;;;;;22.55;55.59;102264.56;5038797;28;19931;-33
2022/06/16 07:10:03;;;;;;;;;;;;;;;22.96;53.06;102258.03;5040338;28;19932;-31
2022/06/16 07:12:31;;;;;;;;;;;;;;;23.31;50.89;102259.31;5038283;28;20309;-29
2022/06/16 07:14:58;;;;;;;;;;;;;;;23.71;52.82;102258.72;5046075;28;19944;-37
2022/06/16 07:17:26;;;;;;;;;;;;;;;24.25;50.35;102262.16;5042059;28;20034;-35
2022/06/16 07:19:54;;;;;;;;;;;;;;;24.61;45.55;102268.97;5044768;28;19928;-37
2022/06/16 07:22:23;;;;;;;;;;;;;;;24.95;45.72;102274.16;5042181;28;19935;-31
2022/06/16 07:24:51;;;;;;;;;;;;;;;25.36;41.75;102280.63;5044201;28;20297;-29
2022/06/16 07:27:19;;;;;;;;;;;;;;;25.75;43.66;102281.69;5041302;28;19924;-35
2022/06/16 07:29:49;;;;;;;;;;;;;;;26.15;41.89;102278.63;5043356;28;20292;-31
2022/06/16 07:32:18;;;;;;;;;;;;;;;26.31;37.77;102281.50;5041248;28;20004;-34
2022/06/16 07:34:46;;;;;;;;;;;;;;;26.35;41.04;102288.97;5044396;28;19974;-29
2022/06/16 07:37:13;;;;;;;;;;;;;;;26.69;40.46;102300.78;5039516;28;20278;-30
2022/06/16 07:39:42;;;;;;;;;;;;;;;27.01;35.93;102293.72;5044110;28;20012;-30
2022/06/16 07:42:11;;;;;;;;;;;;;;;27.35;38.37;102297.72;5041039;28;19929;-29
2022/06/16 07:44:39;;;;;;;;;;;;;;;27.53;38.41;102308.69;5043076;28;19964;-38
2022/06/16 07:47:07;;;;;;;;;;;;;;;27.64;35.21;102299.09;5041073;28;20374;-29
2022/06/16 07:49:34;;;;;;;;;;;;;;;27.57;35.18;102315.31;5043524;28;20409;-38
2022/06/16 07:52:02;;;;;;;;;;;;;;;27.49;36.97;102313.53;5042041;28;20023;-33
2022/06/16 07:54:30;;;;;;;;;;;;;;;27.84;36.60;102305.59;5043569;28;20301;-37
2022/06/16 07:57:19;;;;;;;;;;;;;;;28.48;38.28;102309.56;5030157;28;19925;-29
2022/06/16 07:59:55;;;;;;;;;;;;;;;28.89;36.60;102307.72;5028600;28;19925;-31
2022/06/16 08:02:23;;;;;;;;;;;;;;;29.31;33.22;102312.34;5039576;28;19936;-29
2022/06/16 08:04:50;;;;;;;;;;;;;;;29.52;34.98;102311.78;5037453;28;19929;-31
2022/06/16 08:07:18;;;;;;;;;;;;;;;29.80;35.08;102312.88;5038392;28;19951;-34
2022/06/16 08:09:46;;;;;;;;;;;;;;;30.09;34.50;102310.31;5038849;28;19932;-38
2022/06/16 08:12:14;;;;;;;;;;;;;;;30.49;34.16;102309.38;5041375;28;19935;-37
2022/06/16 08:14:44;;;;;;;;;;;;;;;30.79;30.86;102312.84;5037151;28;19968;-34
2022/06/16 08:17:13;;;;;;;;;;;;;;;30.83;33.38;102315.75;5035540;28;20372;-29
2022/06/16 08:19:41;;;;;;;;;;;;;;;30.98;34.79;102316.66;5037115;28;20401;-34
2022/06/16 08:22:09;;;;;;;;;;;;;;;31.25;36.41;102317.22;5037854;28;19948;-31
2022/06/16 08:24:37;;;;;;;;;;;;;;;31.60;36.17;102317.31;5037458;28;19933;-40
2022/06/16 08:27:06;;;;;;;;;;;;;;;31.80;33.67;102315.72;5039431;28;19935;-30
2022/06/16 08:29:33;;;;;;;;;;;;;;;31.90;36.16;102319.03;5040949;28;19931;-29
2022/06/16 08:32:02;;;;;;;;;;;;;;;31.89;32.20;102318.22;5042544;28;20007;-31
2022/06/16 08:34:30;;;;;;;;;;;;;;;31.84;33.14;102327.28;5040930;28;20017;-30
2022/06/16 08:36:58;;;;;;;;;;;;;;;31.83;32.43;102320.69;5041260;28;19936;-31
2022/06/16 08:39:25;;;;;;;;;;;;;;;31.89;32.95;102323.16;5039717;28;19970;-31
2022/06/16 08:41:59;;;;;;;;;;;;;;;32.08;33.24;102325.66;5032295;28;20044;-36
2022/06/16 08:44:29;;;;;;;;;;;;;;;32.47;32.46;102325.66;5040050;28;19952;-31
2022/06/16 08:47:03;;;;;;;;;;;;;;;32.77;30.45;102322.31;5035660;28;19925;-36
2022/06/16 08:49:39;;;;;;;;;;;;;;;32.98;31.60;102319.34;5039146;28;19965;-30
2022/06/16 08:52:15;;;;;;;;;;;;;;;33.03;30.73;102318.09;5037417;28;20383;-34
2022/06/16 08:54:49;;;;;;;;;;;;;;;33.08;32.57;102321.38;5036535;28;19925;-32
2022/06/16 09:01:32;;;;;;;;;;;;;;;32.84;31.31;102328.06;5044692;28;20011;-34
2022/06/16 09:04:02;;;;;;;;;;;;;;;32.68;33.44;102331.38;5042329;28;20023;-28
2022/06/16 09:06:36;;;;;;;;;;;;;;;32.90;33.27;102334.25;5037049;28;20020;-40
2022/06/16 09:09:13;;;;;;;;;;;;;;;33.00;31.65;102342.88;5038255;28;20603;-35
2022/06/16 09:11:47;;;;;;;;;;;;;;;32.84;32.65;102337.56;5037263;28;19935;-36
2022/06/16 09:17:17;;;;;;;;;;;;;;;33.28;32.98;102336.19;5042329;28;19928;-33
2022/06/16 09:19:52;;;;;;;;;;;;;;;33.29;30.94;102334.13;5043765;28;19947;-33
2022/06/16 09:22:33;;;;;;;;;;;;;;;33.38;30.59;102340.25;5047374;28;19968;-30
2022/06/16 09:25:07;;;;;;;;;;;;;;;33.20;30.85;102341.16;5030127;28;20393;-30
2022/06/16 09:27:38;;;;;;;;;;;;;;;33.04;31.89;102345.75;5041706;28;20396;-40
2022/06/16 09:30:08;;;;;;;;;;;;;;;33.19;32.26;102345.28;5041120;28;19932;-31
2022/06/16 09:32:39;;;;;;;;;;;;;;;33.27;30.75;102336.59;5041989;28;20377;-32
2022/06/16 09:35:19;;;;;;;;;;;;;;;33.38;31.25;102346.06;5041670;28;19964;-37
2022/06/16 09:37:53;;;;;;;;;;;;;;;33.19;31.66;102339.50;5040794;28;19964;-30
2022/06/16 09:40:23;;;;;;;;;;;;;;;32.99;32.17;102347.00;5042203;28;19925;-37
2022/06/16 09:42:56;;;;;;;;;;;;;;;33.14;32.89;102360.22;5039118;28;19925;-34
2022/06/16 09:45:27;;;;;;;;;;;;;;;33.28;32.98;102359.34;5041943;28;19928;-29
2022/06/16 09:48:00;;;;;;;;;;;;;;;33.37;33.25;102367.59;5040493;28;19964;-36
2022/06/16 09:50:32;;;;;;;;;;;;;;;33.29;31.82;102360.16;5041754;28;20308;-31
2022/06/16 09:53:04;;;;;;;;;;;;;;;33.21;32.30;102363.06;5045536;28;19964;-29
2022/06/16 09:55:35;;;;;;;;;;;;;;;32.91;32.88;102365.66;5042153;28;19967;-29
2022/06/16 09:58:10;;;;;;;;;;;;;;;32.85;33.53;102373.09;5040479;28;19925;-34
2022/06/16 10:00:38;;;;;;;;;;;;;;;33.00;32.71;102377.59;5040839;28;19924;-36
2022/06/16 10:03:13;;;;;;;;;;;;;;;33.06;32.52;102378.81;5050411;28;19925;-30
2022/06/16 10:05:46;;;;;;;;;;;;;;;33.32;32.60;102379.59;5039211;28;19924;-35
2022/06/16 10:08:20;;;;;;;;;;;;;;;33.54;32.47;102384.84;5039234;28;19933;-38
2022/06/16 10:10:52;;;;;;;;;;;;;;;33.68;31.69;102381.03;5039133;28;19925;-37
2022/06/16 10:13:34;;;;;;;;;;;;;;;33.78;30.71;102383.06;5039244;28;20275;-36
2022/06/16 10:16:04;;;;;;;;;;;;;;;33.77;31.80;102390.16;5045401;28;20015;-31
2022/06/16 10:18:31;;;;;;;;;;;;;;;33.71;31.88;102380.22;5044565;28;19925;-34
2022/06/16 10:21:01;;;;;;;;;;;;;;;33.70;31.56;102378.56;5044032;28;19933;-30
2022/06/16 10:23:32;;;;;;;;;;;;;;;33.52;30.28;102386.53;5044038;28;20101;-40
2022/06/16 10:26:02;;;;;;;;;;;;;;;33.25;33.08;102388.25;5043381;28;20453;-36
2022/06/16 10:28:31;;;;;;;;;;;;;;;33.14;32.84;102389.13;5037203;28;19979;-31
2022/06/16 10:31:00;;;;;;;;;;;;;;;33.16;33.01;102382.94;5044055;28;19925;-30
2022/06/16 10:33:28;;;;;;;;;;;;;;;33.25;33.60;102391.16;5038685;28;19924;-29
2022/06/16 10:35:57;;;;;;;;;;;;;;;33.45;33.02;102392.34;5044792;28;20320;-33
2022/06/16 10:38:31;;;;;;;;;;;;;;;33.50;30.27;102394.81;5036814;28;19925;-33
2022/06/16 10:41:01;;;;;;;;;;;;;;;33.44;30.98;102394.41;5038858;28;19932;-33
2022/06/16 10:43:40;;;;;;;;;;;;;;;33.35;32.58;102402.72;5042257;28;19940;-34
2022/06/16 10:46:11;;;;;;;;;;;;;;;33.45;31.71;102409.69;5042368;28;20377;-32
2022/06/16 10:48:41;;;;;;;;;;;;;;;33.31;32.23;102403.97;5038948;28;19936;-31
2022/06/16 10:51:11;;;;;;;;;;;;;;;33.11;33.22;102413.13;5038883;28;19983;-30
2022/06/16 10:53:40;;;;;;;;;;;;;;;33.14;33.47;102425.94;5041024;28;19929;-32
2022/06/16 10:56:11;;;;;;;;;;;;;;;33.27;32.59;102420.53;5038432;28;19984;-32
2022/06/16 10:58:58;;;;;;;;;;;;;;;33.26;31.93;102431.28;5041961;28;19932;-38
2022/06/16 11:01:30;;;;;;;;;;;;;;;33.24;32.90;102430.84;5037628;28;20048;-33
2022/06/16 11:04:05;;;;;;;;;;;;;;;33.19;33.37;102428.38;5043921;28;19939;-37
2022/06/16 11:06:34;;;;;;;;;;;;;;;33.22;33.25;102425.47;5039285;28;19936;-37
2022/06/16 11:09:03;;;;;;;;;;;;;;;33.32;31.63;102414.31;5040766;28;19928;-37
2022/06/16 11:11:39;;;;;;;;;;;;;;;33.37;32.49;102413.91;5038516;28;20317;-32
2022/06/16 11:14:08;;;;;;;;;;;;;;;33.55;32.70;102408.84;5038982;28;19932;-43
2022/06/16 11:16:37;;;;;;;;;;;;;;;33.64;31.16;102406.28;5043056;28;19929;-35
2022/06/16 11:19:08;;;;;;;;;;;;;;;33.70;31.44;102416.19;5041237;28;20398;-32
2022/06/16 11:21:36;;;;;;;;;;;;;;;33.58;29.71;102410.03;5028001;28;19929;-32
2022/06/16 11:24:06;;;;;;;;;;;;;;;33.47;30.98;102413.00;5039127;28;20278;-39
2022/06/16 11:26:36;;;;;;;;;;;;;;;33.45;32.16;102421.28;5038195;28;19926;-36
2022/06/16 11:29:21;;;;;;;;;;;;;;;33.49;31.51;102404.72;5038385;28;19925;-31
2022/06/16 11:31:52;;;;;;;;;;;;;;;33.46;31.79;102415.06;5038782;28;19932;-33
2022/06/16 11:34:21;;;;;;;;;;;;;;;33.54;31.17;102418.78;5025437;28;20070;-32
2022/06/16 11:37:14;;;;;;;;;;;;;;;33.61;31.63;102417.91;5037538;28;19929;-32
2022/06/16 11:39:49;;;;;;;;;;;;;;;33.61;31.44;102410.03;5037040;28;19962;-31
2022/06/16 11:42:25;;;;;;;;;;;;;;;33.53;31.56;102417.13;5027841;28;19925;-32
2022/06/16 11:44:59;;;;;;;;;;;;;;;33.47;32.13;102425.41;5040676;28;19933;-42
2022/06/16 11:47:32;;;;;;;;;;;;;;;33.53;29.75;102417.94;5044109;28;19925;-33
2022/06/16 11:50:04;;;;;;;;;;;;;;;33.61;31.02;102429.47;5042601;28;20386;-31
2022/06/16 11:52:37;;;;;;;;;;;;;;;33.63;30.60;102421.19;5043489;28;19925;-40
2022/06/16 11:55:16;;;;;;;;;;;;;;;33.59;30.72;102423.28;5029212;28;20027;-33
2022/06/16 11:57:50;;;;;;;;;;;;;;;33.67;31.24;102422.00;5038127;28;20682;-32
2022/06/16 12:00:21;;;;;;;;;;;;;;;33.83;31.04;102431.03;5029718;28;19979;-41
2022/06/16 12:03:23;;;;;;;;;;;;;;;33.89;30.40;102423.56;5025183;28;20416;-38
2022/06/16 12:05:59;;;;;;;;;;;;;;;33.93;30.37;102430.19;5040404;28;19929;-30
2022/06/16 12:08:37;;;;;;;;;;;;;;;33.86;29.45;102433.94;5044016;28;19932;-36
2022/06/16 12:11:08;;;;;;;;;;;;;;;33.77;30.11;102424.03;5041280;28;19964;-32
2022/06/16 12:13:40;;;;;;;;;;;;;;;33.76;31.16;102420.31;5043008;28;19928;-32
2022/06/16 12:16:13;;;;;;;;;;;;;;;33.83;29.39;102428.97;5042300;28;19925;-34
2022/06/16 12:18:50;;;;;;;;;;;;;;;33.88;28.25;102439.31;5037548;28;19935;-39
2022/06/16 12:21:21;;;;;;;;;;;;;;;33.84;29.49;102435.59;5041218;28;19925;-37
2022/06/16 12:23:56;;;;;;;;;;;;;;;33.80;29.24;102426.09;5038173;28;20124;-32
2022/06/16 12:26:26;;;;;;;;;;;;;;;33.70;28.12;102433.56;5040367;28;19931;-34
2022/06/16 12:29:02;;;;;;;;;;;;;;;33.64;29.05;102429.47;5036945;28;19964;-32
2022/06/16 12:31:36;;;;;;;;;;;;;;;33.59;29.59;102435.69;5040860;28;19931;-33
2022/06/16 12:34:09;;;;;;;;;;;;;;;33.56;29.67;102432.84;5037937;28;19932;-33
2022/06/16 12:36:39;;;;;;;;;;;;;;;33.57;29.96;102435.31;5039466;28;19931;-38
2022/06/16 12:39:08;;;;;;;;;;;;;;;33.65;30.55;102431.13;5037747;28;20016;-32
2022/06/16 12:41:39;;;;;;;;;;;;;;;33.63;29.38;102427.81;5037949;28;19925;-32
2022/06/16 12:44:10;;;;;;;;;;;;;;;33.53;29.16;102435.31;5038406;28;19925;-32
2022/06/16 12:46:43;;;;;;;;;;;;;;;33.49;29.03;102430.78;5037092;28;19925;-32
2022/06/16 12:49:14;;;;;;;;;;;;;;;33.55;29.06;102437.78;5038041;28;19972;-34
2022/06/16 12:51:45;;;;;;;;;;;;;;;33.52;28.58;102436.56;5039016;28;19925;-30
2022/06/16 12:54:15;;;;;;;;;;;;;;;33.36;28.17;102433.31;5042029;28;20180;-32
2022/06/16 12:56:45;;;;;;;;;;;;;;;33.27;28.89;102427.16;5042022;28;19929;-33
2022/06/16 12:59:17;;;;;;;;;;;;;;;33.27;28.49;102424.25;5043329;28;19933;-30
2022/06/16 13:01:45;;;;;;;;;;;;;;;33.31;28.28;102416.38;5038527;28;19994;-30
2022/06/16 13:04:15;;;;;;;;;;;;;;;33.29;27.26;102415.16;5031685;28;19929;-36
2022/06/16 13:06:43;;;;;;;;;;;;;;;33.31;27.32;102415.56;5043151;28;19933;-34
2022/06/16 13:09:12;;;;;;;;;;;;;;;33.30;28.01;102414.72;5041590;28;19924;-36
2022/06/16 13:11:44;;;;;;;;;;;;;;;33.36;27.59;102407.28;5042740;28;19925;-41
2022/06/16 13:14:14;;;;;;;;;;;;;;;33.45;27.95;102410.53;5033939;28;19929;-33
2022/06/16 13:16:44;;;;;;;;;;;;;;;33.54;28.34;102402.22;5037328;28;19932;-31
2022/06/16 13:19:15;;;;;;;;;;;;;;;33.64;27.45;102400.50;5040685;28;20390;-36
2022/06/16 13:21:48;;;;;;;;;;;;;;;33.71;27.57;102397.59;5042435;28;19928;-30